Ana Sayfa
METAR-TAF:

METAR-TAF

Havaalanları :

Huron County Memorial Airport

Bad Axe, Michigan, Amerika Birleşik Devletleri

Enlem: 43-46-51N, Boylam: 082-59-08W, yükseklik: 233 m

Güncel hava durumu gözlemi

Rapor saat 16:15 UTC de 21 dakika önce yapıldı.
Rüzgar güneybatıdan 10 kt ve 15 kt'a kadar ani rüzgarlar
Sıcaklık 27°C
Nem 62%
Basınç 1013 hPa
Görüş mesafesi: 16.1 km
2600 ft yükseklikte parçalı çok bulutlu

METAR: KBAX 211615Z AUTO 23010G15KT 10SM BKN026 27/19 A2990 RMK AO2 T02720192

Saat: 12:36 (16:36 UTC)


TAF: eksik

4.000'den fazla havaalanı için hava durumu gözlemleri ve tahminleri (METAR ve TAF raporları).

Kullanılabilir istasyonlar harita üzerinde sarı ve kırmızı noktalarla gösterilir.

İstasyonun adını görmek için fareyi noktanın üzerinde gezdirin.

Sonrasında hava gözlem ve tahminlerini görmek için tıklayın.

Haritayı değiştirmek için: yaklaştırmak için siyah artı işaretli yeşil düğmeye ve uzaklaştırmak için de eksi işaretli düğmeye hızla tıklayın; bitişik haritalar için yeşil okları kullanın.


METAR-TAF: